Terminal Aerodrome Forecast
Issued by NWS

Home | Current Version | Previous Version | Text Only | Print | Product List | Glossary On
Versions: 1 2 3 4 5 6 7 8 9 10 11 12 13 14 15 16 17 18 19 20 21 22 23 24 25 26 27 28
000
FTAK31 PAFA 161139
TAFAOM
TAF
PAOM 161139Z 1612/1712 03004KT P6SM VCSH BKN090 OVC110
     FM161600 01007KT P6SM -SHRA OVC020
     FM162300 33006KT P6SM -SHRA BKN035 OVC060=

USA.gov is the U.S. government's official web portal to all federal, state and local government web resources and services.